sensor_id;sensor_type;location;lat;lon;timestamp;P1;durP1;ratioP1;P2;durP2;ratioP2
67585;SDS011;55785;47.946;20.540;2023-08-12T00:00:26;5.25;;;1.80;;
67585;SDS011;55785;47.946;20.540;2023-08-12T00:02:51;2.03;;;1.70;;
67585;SDS011;55785;47.946;20.540;2023-08-12T00:05:16;2.72;;;1.73;;
67585;SDS011;55785;47.946;20.540;2023-08-12T00:07:42;2.33;;;1.65;;
67585;SDS011;55785;47.946;20.540;2023-08-12T00:10:08;2.75;;;1.60;;
67585;SDS011;55785;47.946;20.540;2023-08-12T00:12:34;2.80;;;1.80;;
67585;SDS011;55785;47.946;20.540;2023-08-12T00:15:00;3.63;;;1.58;;
67585;SDS011;55785;47.946;20.540;2023-08-12T00:17:26;6.18;;;1.80;;
67585;SDS011;55785;47.946;20.540;2023-08-12T00:19:52;4.72;;;1.70;;
67585;SDS011;55785;47.946;20.540;2023-08-12T00:22:17;2.92;;;2.00;;
67585;SDS011;55785;47.946;20.540;2023-08-12T00:24:43;1.83;;;1.50;;
67585;SDS011;55785;47.946;20.540;2023-08-12T00:27:08;1.90;;;1.70;;
67585;SDS011;55785;47.946;20.540;2023-08-12T00:29:34;3.10;;;1.70;;
67585;SDS011;55785;47.946;20.540;2023-08-12T00:31:59;2.00;;;1.70;;
67585;SDS011;55785;47.946;20.540;2023-08-12T00:34:25;2.05;;;1.60;;
67585;SDS011;55785;47.946;20.540;2023-08-12T00:36:50;4.10;;;1.83;;
67585;SDS011;55785;47.946;20.540;2023-08-12T00:39:16;2.50;;;1.75;;
67585;SDS011;55785;47.946;20.540;2023-08-12T00:41:41;3.25;;;1.70;;
67585;SDS011;55785;47.946;20.540;2023-08-12T00:44:06;2.10;;;1.52;;
67585;SDS011;55785;47.946;20.540;2023-08-12T00:46:32;1.92;;;1.60;;
67585;SDS011;55785;47.946;20.540;2023-08-12T00:48:58;4.60;;;1.60;;
67585;SDS011;55785;47.946;20.540;2023-08-12T00:51:24;2.70;;;1.83;;
67585;SDS011;55785;47.946;20.540;2023-08-12T00:53:50;4.13;;;1.70;;
67585;SDS011;55785;47.946;20.540;2023-08-12T00:56:15;4.05;;;1.80;;
67585;SDS011;55785;47.946;20.540;2023-08-12T00:58:42;2.63;;;1.80;;
67585;SDS011;55785;47.946;20.540;2023-08-12T01:01:08;2.45;;;1.70;;
67585;SDS011;55785;47.946;20.540;2023-08-12T01:03:34;2.47;;;1.80;;
67585;SDS011;55785;47.946;20.540;2023-08-12T01:05:59;3.22;;;1.70;;
67585;SDS011;55785;47.946;20.540;2023-08-12T01:08:31;2.47;;;1.80;;
67585;SDS011;55785;47.946;20.540;2023-08-12T01:11:06;3.40;;;1.90;;
67585;SDS011;55785;47.946;20.540;2023-08-12T01:13:50;2.20;;;1.60;;
67585;SDS011;55785;47.946;20.540;2023-08-12T01:16:23;3.20;;;1.67;;
67585;SDS011;55785;47.946;20.540;2023-08-12T01:18:52;2.70;;;2.05;;
67585;SDS011;55785;47.946;20.540;2023-08-12T01:21:18;2.30;;;1.63;;
67585;SDS011;55785;47.946;20.540;2023-08-12T01:23:46;3.13;;;1.70;;
67585;SDS011;55785;47.946;20.540;2023-08-12T01:26:12;3.00;;;1.77;;
67585;SDS011;55785;47.946;20.540;2023-08-12T01:28:37;2.78;;;2.05;;
67585;SDS011;55785;47.946;20.540;2023-08-12T01:31:08;2.67;;;1.80;;
67585;SDS011;55785;47.946;20.540;2023-08-12T01:33:41;2.65;;;1.65;;
67585;SDS011;55785;47.946;20.540;2023-08-12T01:36:20;3.75;;;1.90;;
67585;SDS011;55785;47.946;20.540;2023-08-12T01:38:46;2.45;;;1.73;;
67585;SDS011;55785;47.946;20.540;2023-08-12T01:41:15;2.42;;;1.80;;
67585;SDS011;55785;47.946;20.540;2023-08-12T01:43:43;2.00;;;1.55;;
67585;SDS011;55785;47.946;20.540;2023-08-12T01:46:09;2.10;;;1.60;;
67585;SDS011;55785;47.946;20.540;2023-08-12T01:48:35;4.40;;;1.80;;
67585;SDS011;55785;47.946;20.540;2023-08-12T01:51:00;2.63;;;1.50;;
67585;SDS011;55785;47.946;20.540;2023-08-12T01:53:26;3.90;;;1.83;;
67585;SDS011;55785;47.946;20.540;2023-08-12T01:55:51;3.60;;;1.73;;
67585;SDS011;55785;47.946;20.540;2023-08-12T01:58:17;2.67;;;1.80;;
67585;SDS011;55785;47.946;20.540;2023-08-12T02:00:42;2.67;;;1.80;;
67585;SDS011;55785;47.946;20.540;2023-08-12T02:03:07;2.33;;;1.60;;
67585;SDS011;55785;47.946;20.540;2023-08-12T02:05:33;2.20;;;1.80;;
67585;SDS011;55785;47.946;20.540;2023-08-12T02:07:58;2.20;;;1.80;;
67585;SDS011;55785;47.946;20.540;2023-08-12T02:10:24;3.42;;;2.10;;
67585;SDS011;55785;47.946;20.540;2023-08-12T02:12:49;2.00;;;1.70;;
67585;SDS011;55785;47.946;20.540;2023-08-12T02:15:14;7.47;;;1.70;;
67585;SDS011;55785;47.946;20.540;2023-08-12T02:17:40;3.40;;;1.77;;
67585;SDS011;55785;47.946;20.540;2023-08-12T02:20:05;3.55;;;1.70;;
67585;SDS011;55785;47.946;20.540;2023-08-12T02:22:31;2.85;;;1.83;;
67585;SDS011;55785;47.946;20.540;2023-08-12T02:24:57;2.28;;;1.70;;
67585;SDS011;55785;47.946;20.540;2023-08-12T02:27:22;3.17;;;1.60;;
67585;SDS011;55785;47.946;20.540;2023-08-12T02:29:47;1.85;;;1.55;;
67585;SDS011;55785;47.946;20.540;2023-08-12T02:32:13;3.70;;;1.80;;
67585;SDS011;55785;47.946;20.540;2023-08-12T02:34:38;2.92;;;1.70;;
67585;SDS011;55785;47.946;20.540;2023-08-12T02:37:03;2.08;;;1.52;;
67585;SDS011;55785;47.946;20.540;2023-08-12T02:39:29;3.08;;;1.90;;
67585;SDS011;55785;47.946;20.540;2023-08-12T02:41:54;2.17;;;1.55;;
67585;SDS011;55785;47.946;20.540;2023-08-12T02:44:19;3.38;;;1.70;;
67585;SDS011;55785;47.946;20.540;2023-08-12T02:46:45;2.60;;;1.73;;
67585;SDS011;55785;47.946;20.540;2023-08-12T02:49:10;4.25;;;1.73;;
67585;SDS011;55785;47.946;20.540;2023-08-12T02:51:36;2.42;;;1.52;;
67585;SDS011;55785;47.946;20.540;2023-08-12T02:54:01;2.63;;;1.70;;
67585;SDS011;55785;47.946;20.540;2023-08-12T02:56:26;2.92;;;1.60;;
67585;SDS011;55785;47.946;20.540;2023-08-12T02:58:52;2.13;;;1.70;;
67585;SDS011;55785;47.946;20.540;2023-08-12T03:01:17;2.65;;;1.75;;
67585;SDS011;55785;47.946;20.540;2023-08-12T03:03:43;2.13;;;1.50;;
67585;SDS011;55785;47.946;20.540;2023-08-12T03:06:08;1.92;;;1.55;;
67585;SDS011;55785;47.946;20.540;2023-08-12T03:08:33;2.13;;;1.70;;
67585;SDS011;55785;47.946;20.540;2023-08-12T03:10:59;3.63;;;1.80;;
67585;SDS011;55785;47.946;20.540;2023-08-12T03:13:25;1.98;;;1.67;;
67585;SDS011;55785;47.946;20.540;2023-08-12T03:15:51;3.13;;;1.70;;
67585;SDS011;55785;47.946;20.540;2023-08-12T03:18:16;2.38;;;1.70;;
67585;SDS011;55785;47.946;20.540;2023-08-12T03:20:42;1.85;;;1.70;;
67585;SDS011;55785;47.946;20.540;2023-08-12T03:23:07;3.30;;;1.70;;
67585;SDS011;55785;47.946;20.540;2023-08-12T03:25:33;3.25;;;1.60;;
67585;SDS011;55785;47.946;20.540;2023-08-12T03:27:58;1.70;;;1.50;;
67585;SDS011;55785;47.946;20.540;2023-08-12T03:30:23;2.05;;;1.67;;
67585;SDS011;55785;47.946;20.540;2023-08-12T03:32:49;1.98;;;1.70;;
67585;SDS011;55785;47.946;20.540;2023-08-12T03:35:14;3.67;;;1.67;;
67585;SDS011;55785;47.946;20.540;2023-08-12T03:37:39;4.15;;;1.77;;
67585;SDS011;55785;47.946;20.540;2023-08-12T03:40:05;2.42;;;1.52;;
67585;SDS011;55785;47.946;20.540;2023-08-12T03:42:31;2.67;;;1.80;;
67585;SDS011;55785;47.946;20.540;2023-08-12T03:44:56;2.28;;;1.52;;
67585;SDS011;55785;47.946;20.540;2023-08-12T03:47:21;3.85;;;1.60;;
67585;SDS011;55785;47.946;20.540;2023-08-12T03:49:47;2.42;;;1.67;;
67585;SDS011;55785;47.946;20.540;2023-08-12T03:52:12;4.07;;;1.80;;
67585;SDS011;55785;47.946;20.540;2023-08-12T03:54:38;2.20;;;1.65;;
67585;SDS011;55785;47.946;20.540;2023-08-12T03:57:03;4.00;;;1.75;;
67585;SDS011;55785;47.946;20.540;2023-08-12T03:59:29;3.15;;;1.63;;
67585;SDS011;55785;47.946;20.540;2023-08-12T04:01:54;2.45;;;1.50;;
67585;SDS011;55785;47.946;20.540;2023-08-12T04:04:19;2.30;;;1.75;;
67585;SDS011;55785;47.946;20.540;2023-08-12T04:06:45;2.40;;;1.70;;
67585;SDS011;55785;47.946;20.540;2023-08-12T04:09:10;2.75;;;1.70;;
67585;SDS011;55785;47.946;20.540;2023-08-12T04:11:35;2.38;;;1.80;;
67585;SDS011;55785;47.946;20.540;2023-08-12T04:14:01;2.50;;;1.77;;
67585;SDS011;55785;47.946;20.540;2023-08-12T04:16:26;2.30;;;1.63;;
67585;SDS011;55785;47.946;20.540;2023-08-12T04:18:51;1.90;;;1.65;;
67585;SDS011;55785;47.946;20.540;2023-08-12T04:21:17;4.03;;;1.90;;
67585;SDS011;55785;47.946;20.540;2023-08-12T04:23:42;3.97;;;1.58;;
67585;SDS011;55785;47.946;20.540;2023-08-12T04:26:08;2.92;;;1.58;;
67585;SDS011;55785;47.946;20.540;2023-08-12T04:28:33;2.15;;;1.52;;
67585;SDS011;55785;47.946;20.540;2023-08-12T04:30:58;1.67;;;1.33;;
67585;SDS011;55785;47.946;20.540;2023-08-12T04:33:24;2.40;;;1.70;;
67585;SDS011;55785;47.946;20.540;2023-08-12T04:35:49;2.55;;;1.60;;
67585;SDS011;55785;47.946;20.540;2023-08-12T04:38:14;3.22;;;1.67;;
67585;SDS011;55785;47.946;20.540;2023-08-12T04:40:40;1.85;;;1.40;;
67585;SDS011;55785;47.946;20.540;2023-08-12T04:43:09;2.58;;;1.65;;
67585;SDS011;55785;47.946;20.540;2023-08-12T04:45:35;2.60;;;1.88;;
67585;SDS011;55785;47.946;20.540;2023-08-12T04:48:02;5.38;;;1.75;;
67585;SDS011;55785;47.946;20.540;2023-08-12T04:50:31;3.60;;;1.60;;
67585;SDS011;55785;47.946;20.540;2023-08-12T04:52:56;3.47;;;1.67;;
67585;SDS011;55785;47.946;20.540;2023-08-12T04:55:24;1.90;;;1.50;;
67585;SDS011;55785;47.946;20.540;2023-08-12T04:57:50;6.10;;;1.67;;
67585;SDS011;55785;47.946;20.540;2023-08-12T05:00:15;4.22;;;1.75;;
67585;SDS011;55785;47.946;20.540;2023-08-12T05:02:40;4.45;;;1.42;;
67585;SDS011;55785;47.946;20.540;2023-08-12T05:05:06;2.67;;;1.55;;
67585;SDS011;55785;47.946;20.540;2023-08-12T05:07:32;2.70;;;1.80;;
67585;SDS011;55785;47.946;20.540;2023-08-12T05:09:57;3.35;;;1.90;;
67585;SDS011;55785;47.946;20.540;2023-08-12T05:12:22;2.45;;;1.40;;
67585;SDS011;55785;47.946;20.540;2023-08-12T05:14:48;2.88;;;1.60;;
67585;SDS011;55785;47.946;20.540;2023-08-12T05:17:13;2.38;;;1.60;;
67585;SDS011;55785;47.946;20.540;2023-08-12T05:19:38;4.00;;;1.60;;
67585;SDS011;55785;47.946;20.540;2023-08-12T05:22:04;2.35;;;1.50;;
67585;SDS011;55785;47.946;20.540;2023-08-12T05:24:29;1.92;;;1.60;;
67585;SDS011;55785;47.946;20.540;2023-08-12T05:26:54;2.95;;;1.50;;
67585;SDS011;55785;47.946;20.540;2023-08-12T05:29:20;3.15;;;1.65;;
67585;SDS011;55785;47.946;20.540;2023-08-12T05:31:45;2.55;;;1.70;;
67585;SDS011;55785;47.946;20.540;2023-08-12T05:34:10;3.17;;;1.80;;
67585;SDS011;55785;47.946;20.540;2023-08-12T05:36:36;2.08;;;1.50;;
67585;SDS011;55785;47.946;20.540;2023-08-12T05:39:01;3.95;;;1.65;;
67585;SDS011;55785;47.946;20.540;2023-08-12T05:41:27;2.80;;;1.60;;
67585;SDS011;55785;47.946;20.540;2023-08-12T05:43:52;2.03;;;1.50;;
67585;SDS011;55785;47.946;20.540;2023-08-12T05:46:17;2.25;;;1.45;;
67585;SDS011;55785;47.946;20.540;2023-08-12T05:48:43;3.65;;;1.67;;
67585;SDS011;55785;47.946;20.540;2023-08-12T05:51:08;1.67;;;1.30;;
67585;SDS011;55785;47.946;20.540;2023-08-12T05:53:33;2.20;;;1.50;;
67585;SDS011;55785;47.946;20.540;2023-08-12T05:55:59;3.85;;;1.63;;
67585;SDS011;55785;47.946;20.540;2023-08-12T05:58:25;2.13;;;1.67;;
67585;SDS011;55785;47.946;20.540;2023-08-12T06:00:50;1.90;;;1.30;;
67585;SDS011;55785;47.946;20.540;2023-08-12T06:03:16;2.55;;;1.48;;
67585;SDS011;55785;47.946;20.540;2023-08-12T06:05:43;1.80;;;1.40;;
67585;SDS011;55785;47.946;20.540;2023-08-12T06:08:09;2.42;;;1.40;;
67585;SDS011;55785;47.946;20.540;2023-08-12T06:10:34;2.83;;;1.45;;
67585;SDS011;55785;47.946;20.540;2023-08-12T06:13:00;2.13;;;1.40;;
67585;SDS011;55785;47.946;20.540;2023-08-12T06:15:25;3.03;;;1.50;;
67585;SDS011;55785;47.946;20.540;2023-08-12T06:17:50;3.17;;;1.70;;
67585;SDS011;55785;47.946;20.540;2023-08-12T06:20:16;4.40;;;1.40;;
67585;SDS011;55785;47.946;20.540;2023-08-12T06:22:41;4.43;;;1.77;;
67585;SDS011;55785;47.946;20.540;2023-08-12T06:25:07;1.83;;;1.52;;
67585;SDS011;55785;47.946;20.540;2023-08-12T06:27:33;4.28;;;1.30;;
67585;SDS011;55785;47.946;20.540;2023-08-12T06:29:58;2.58;;;1.50;;
67585;SDS011;55785;47.946;20.540;2023-08-12T06:32:23;1.83;;;1.33;;
67585;SDS011;55785;47.946;20.540;2023-08-12T06:34:49;3.00;;;1.45;;
67585;SDS011;55785;47.946;20.540;2023-08-12T06:37:14;2.42;;;1.50;;
67585;SDS011;55785;47.946;20.540;2023-08-12T06:39:39;3.08;;;1.55;;
67585;SDS011;55785;47.946;20.540;2023-08-12T06:42:05;2.13;;;1.20;;
67585;SDS011;55785;47.946;20.540;2023-08-12T06:44:30;2.00;;;1.35;;
67585;SDS011;55785;47.946;20.540;2023-08-12T06:46:56;3.15;;;1.30;;
67585;SDS011;55785;47.946;20.540;2023-08-12T06:49:21;2.00;;;1.33;;
67585;SDS011;55785;47.946;20.540;2023-08-12T06:51:46;3.65;;;1.70;;
67585;SDS011;55785;47.946;20.540;2023-08-12T06:54:12;2.90;;;1.60;;
67585;SDS011;55785;47.946;20.540;2023-08-12T06:56:37;1.80;;;1.50;;
67585;SDS011;55785;47.946;20.540;2023-08-12T06:59:03;1.95;;;1.30;;
67585;SDS011;55785;47.946;20.540;2023-08-12T07:01:28;1.85;;;1.40;;
67585;SDS011;55785;47.946;20.540;2023-08-12T07:03:53;3.00;;;1.35;;
67585;SDS011;55785;47.946;20.540;2023-08-12T07:06:19;1.60;;;1.25;;
67585;SDS011;55785;47.946;20.540;2023-08-12T07:08:44;7.57;;;1.40;;
67585;SDS011;55785;47.946;20.540;2023-08-12T07:11:09;2.35;;;1.60;;
67585;SDS011;55785;47.946;20.540;2023-08-12T07:13:35;2.78;;;1.38;;
67585;SDS011;55785;47.946;20.540;2023-08-12T07:16:00;2.50;;;1.40;;
67585;SDS011;55785;47.946;20.540;2023-08-12T07:18:26;2.03;;;1.30;;
67585;SDS011;55785;47.946;20.540;2023-08-12T07:20:51;3.90;;;1.42;;
67585;SDS011;55785;47.946;20.540;2023-08-12T07:23:16;1.25;;;1.15;;
67585;SDS011;55785;47.946;20.540;2023-08-12T07:25:42;3.08;;;1.48;;
67585;SDS011;55785;47.946;20.540;2023-08-12T07:28:07;3.25;;;1.40;;
67585;SDS011;55785;47.946;20.540;2023-08-12T07:30:36;2.53;;;1.40;;
67585;SDS011;55785;47.946;20.540;2023-08-12T07:33:01;1.92;;;1.30;;
67585;SDS011;55785;47.946;20.540;2023-08-12T07:35:26;2.28;;;1.50;;
67585;SDS011;55785;47.946;20.540;2023-08-12T07:37:52;2.40;;;1.60;;
67585;SDS011;55785;47.946;20.540;2023-08-12T07:40:17;2.22;;;1.27;;
67585;SDS011;55785;47.946;20.540;2023-08-12T07:42:43;1.70;;;1.20;;
67585;SDS011;55785;47.946;20.540;2023-08-12T07:45:08;2.03;;;1.35;;
67585;SDS011;55785;47.946;20.540;2023-08-12T07:47:34;2.13;;;1.40;;
67585;SDS011;55785;47.946;20.540;2023-08-12T07:49:59;2.45;;;1.45;;
67585;SDS011;55785;47.946;20.540;2023-08-12T07:52:25;1.92;;;1.50;;
67585;SDS011;55785;47.946;20.540;2023-08-12T07:54:50;2.70;;;1.40;;
67585;SDS011;55785;47.946;20.540;2023-08-12T07:57:15;2.78;;;1.50;;
67585;SDS011;55785;47.946;20.540;2023-08-12T07:59:41;2.38;;;1.50;;
67585;SDS011;55785;47.946;20.540;2023-08-12T08:02:06;2.83;;;1.40;;
67585;SDS011;55785;47.946;20.540;2023-08-12T08:04:31;2.13;;;1.40;;
67585;SDS011;55785;47.946;20.540;2023-08-12T08:06:57;2.88;;;1.52;;
67585;SDS011;55785;47.946;20.540;2023-08-12T08:09:22;2.40;;;1.40;;
67585;SDS011;55785;47.946;20.540;2023-08-12T08:11:47;2.33;;;1.33;;
67585;SDS011;55785;47.946;20.540;2023-08-12T08:14:13;3.70;;;1.50;;
67585;SDS011;55785;47.946;20.540;2023-08-12T08:16:38;3.05;;;1.30;;
67585;SDS011;55785;47.946;20.540;2023-08-12T08:19:03;2.35;;;1.38;;
67585;SDS011;55785;47.946;20.540;2023-08-12T08:21:29;2.65;;;1.23;;
67585;SDS011;55785;47.946;20.540;2023-08-12T08:23:54;2.72;;;1.40;;
67585;SDS011;55785;47.946;20.540;2023-08-12T08:26:19;3.63;;;1.50;;
67585;SDS011;55785;47.946;20.540;2023-08-12T08:28:45;1.65;;;1.30;;
67585;SDS011;55785;47.946;20.540;2023-08-12T08:31:10;3.90;;;1.38;;
67585;SDS011;55785;47.946;20.540;2023-08-12T08:33:36;3.38;;;1.30;;
67585;SDS011;55785;47.946;20.540;2023-08-12T08:36:01;2.53;;;1.20;;
67585;SDS011;55785;47.946;20.540;2023-08-12T08:38:26;4.20;;;1.48;;
67585;SDS011;55785;47.946;20.540;2023-08-12T08:40:52;2.60;;;1.40;;
67585;SDS011;55785;47.946;20.540;2023-08-12T08:43:21;2.38;;;1.30;;
67585;SDS011;55785;47.946;20.540;2023-08-12T08:45:46;3.08;;;1.50;;
67585;SDS011;55785;47.946;20.540;2023-08-12T08:48:17;2.90;;;1.40;;
67585;SDS011;55785;47.946;20.540;2023-08-12T08:50:44;1.73;;;1.42;;
67585;SDS011;55785;47.946;20.540;2023-08-12T08:53:10;1.63;;;1.20;;
67585;SDS011;55785;47.946;20.540;2023-08-12T08:55:35;2.08;;;1.30;;
67585;SDS011;55785;47.946;20.540;2023-08-12T08:58:01;3.45;;;1.35;;
67585;SDS011;55785;47.946;20.540;2023-08-12T09:00:28;2.38;;;1.33;;
67585;SDS011;55785;47.946;20.540;2023-08-12T09:02:53;2.95;;;1.40;;
67585;SDS011;55785;47.946;20.540;2023-08-12T09:05:21;2.30;;;1.30;;
67585;SDS011;55785;47.946;20.540;2023-08-12T09:07:48;2.47;;;1.30;;
67585;SDS011;55785;47.946;20.540;2023-08-12T09:10:15;1.77;;;1.35;;
67585;SDS011;55785;47.946;20.540;2023-08-12T09:12:42;1.98;;;1.40;;
67585;SDS011;55785;47.946;20.540;2023-08-12T09:15:09;2.00;;;1.50;;
67585;SDS011;55785;47.946;20.540;2023-08-12T09:17:34;1.73;;;1.40;;
67585;SDS011;55785;47.946;20.540;2023-08-12T09:20:00;2.65;;;1.45;;
67585;SDS011;55785;47.946;20.540;2023-08-12T09:22:25;1.92;;;1.38;;
67585;SDS011;55785;47.946;20.540;2023-08-12T09:24:57;4.28;;;1.25;;
67585;SDS011;55785;47.946;20.540;2023-08-12T09:27:23;2.15;;;1.35;;
67585;SDS011;55785;47.946;20.540;2023-08-12T09:29:48;2.35;;;1.48;;
67585;SDS011;55785;47.946;20.540;2023-08-12T09:32:18;2.15;;;1.48;;
67585;SDS011;55785;47.946;20.540;2023-08-12T09:34:47;3.50;;;1.70;;
67585;SDS011;55785;47.946;20.540;2023-08-12T09:37:17;2.50;;;1.30;;
67585;SDS011;55785;47.946;20.540;2023-08-12T09:39:47;2.33;;;1.50;;
67585;SDS011;55785;47.946;20.540;2023-08-12T09:42:13;1.38;;;1.17;;
67585;SDS011;55785;47.946;20.540;2023-08-12T09:44:39;2.13;;;1.40;;
67585;SDS011;55785;47.946;20.540;2023-08-12T09:47:05;2.08;;;1.50;;
67585;SDS011;55785;47.946;20.540;2023-08-12T09:49:31;2.90;;;1.30;;
67585;SDS011;55785;47.946;20.540;2023-08-12T09:51:58;2.58;;;1.50;;
67585;SDS011;55785;47.946;20.540;2023-08-12T09:54:27;3.80;;;1.40;;
67585;SDS011;55785;47.946;20.540;2023-08-12T09:56:54;1.77;;;1.45;;
67585;SDS011;55785;47.946;20.540;2023-08-12T09:59:22;2.95;;;1.42;;
67585;SDS011;55785;47.946;20.540;2023-08-12T10:01:50;1.65;;;1.30;;
67585;SDS011;55785;47.946;20.540;2023-08-12T10:04:17;2.10;;;1.40;;
67585;SDS011;55785;47.946;20.540;2023-08-12T10:06:46;2.65;;;1.33;;
67585;SDS011;55785;47.946;20.540;2023-08-12T10:09:12;2.22;;;1.50;;
67585;SDS011;55785;47.946;20.540;2023-08-12T10:11:40;2.35;;;1.20;;
67585;SDS011;55785;47.946;20.540;2023-08-12T10:14:08;2.58;;;1.40;;
67585;SDS011;55785;47.946;20.540;2023-08-12T10:16:34;1.90;;;1.40;;
67585;SDS011;55785;47.946;20.540;2023-08-12T10:19:01;2.42;;;1.30;;
67585;SDS011;55785;47.946;20.540;2023-08-12T10:21:29;3.08;;;1.40;;
67585;SDS011;55785;47.946;20.540;2023-08-12T10:23:54;1.90;;;1.30;;
67585;SDS011;55785;47.946;20.540;2023-08-12T10:26:22;3.78;;;1.80;;
67585;SDS011;55785;47.946;20.540;2023-08-12T10:28:49;2.58;;;1.55;;
67585;SDS011;55785;47.946;20.540;2023-08-12T10:31:14;1.83;;;1.38;;
67585;SDS011;55785;47.946;20.540;2023-08-12T10:33:40;1.83;;;1.40;;
67585;SDS011;55785;47.946;20.540;2023-08-12T10:36:06;2.42;;;1.60;;
67585;SDS011;55785;47.946;20.540;2023-08-12T10:38:32;1.55;;;1.40;;
67585;SDS011;55785;47.946;20.540;2023-08-12T10:43:59;4.35;;;1.63;;
67585;SDS011;55785;47.946;20.540;2023-08-12T10:46:33;1.67;;;1.30;;
67585;SDS011;55785;47.946;20.540;2023-08-12T10:49:03;1.30;;;1.20;;
67585;SDS011;55785;47.946;20.540;2023-08-12T10:54:24;2.47;;;1.35;;
67585;SDS011;55785;47.946;20.540;2023-08-12T11:04:48;3.00;;;1.33;;
67585;SDS011;55785;47.946;20.540;2023-08-12T11:07:18;2.08;;;1.23;;
67585;SDS011;55785;47.946;20.540;2023-08-12T11:09:44;1.83;;;1.27;;
67585;SDS011;55785;47.946;20.540;2023-08-12T11:12:10;2.40;;;1.20;;
67585;SDS011;55785;47.946;20.540;2023-08-12T11:14:54;2.83;;;1.17;;
67585;SDS011;55785;47.946;20.540;2023-08-12T11:17:33;2.92;;;1.27;;
67585;SDS011;55785;47.946;20.540;2023-08-12T11:20:06;2.90;;;1.30;;
67585;SDS011;55785;47.946;20.540;2023-08-12T11:22:35;2.75;;;1.48;;
67585;SDS011;55785;47.946;20.540;2023-08-12T11:25:02;1.58;;;1.15;;
67585;SDS011;55785;47.946;20.540;2023-08-12T11:27:28;1.83;;;1.27;;
67585;SDS011;55785;47.946;20.540;2023-08-12T11:30:03;2.30;;;1.45;;
67585;SDS011;55785;47.946;20.540;2023-08-12T11:32:28;1.80;;;1.40;;
67585;SDS011;55785;47.946;20.540;2023-08-12T11:34:54;2.03;;;1.40;;
67585;SDS011;55785;47.946;20.540;2023-08-12T11:37:20;1.65;;;1.40;;
67585;SDS011;55785;47.946;20.540;2023-08-12T11:39:45;2.47;;;1.48;;
67585;SDS011;55785;47.946;20.540;2023-08-12T11:42:10;2.58;;;1.50;;
67585;SDS011;55785;47.946;20.540;2023-08-12T11:44:36;3.17;;;1.38;;
67585;SDS011;55785;47.946;20.540;2023-08-12T11:47:01;1.73;;;1.35;;
67585;SDS011;55785;47.946;20.540;2023-08-12T11:49:26;2.83;;;1.42;;
67585;SDS011;55785;47.946;20.540;2023-08-12T11:51:52;2.60;;;1.60;;
67585;SDS011;55785;47.946;20.540;2023-08-12T11:54:17;1.63;;;1.45;;
67585;SDS011;55785;47.946;20.540;2023-08-12T11:56:43;1.50;;;1.40;;
67585;SDS011;55785;47.946;20.540;2023-08-12T11:59:09;3.97;;;1.40;;
67585;SDS011;55785;47.946;20.540;2023-08-12T12:01:34;2.15;;;1.38;;
67585;SDS011;55785;47.946;20.540;2023-08-12T12:04:00;2.03;;;1.35;;
67585;SDS011;55785;47.946;20.540;2023-08-12T12:06:32;2.60;;;1.50;;
67585;SDS011;55785;47.946;20.540;2023-08-12T12:09:04;4.90;;;1.60;;
67585;SDS011;55785;47.946;20.540;2023-08-12T12:11:31;2.90;;;1.40;;
67585;SDS011;55785;47.946;20.540;2023-08-12T12:14:00;1.63;;;1.40;;
67585;SDS011;55785;47.946;20.540;2023-08-12T12:19:19;3.30;;;1.33;;
67585;SDS011;55785;47.946;20.540;2023-08-12T12:21:46;2.00;;;1.40;;
67585;SDS011;55785;47.946;20.540;2023-08-12T12:24:13;1.85;;;1.33;;
67585;SDS011;55785;47.946;20.540;2023-08-12T12:26:39;2.55;;;1.55;;
67585;SDS011;55785;47.946;20.540;2023-08-12T12:29:04;1.67;;;1.52;;
67585;SDS011;55785;47.946;20.540;2023-08-12T12:31:34;1.83;;;1.40;;
67585;SDS011;55785;47.946;20.540;2023-08-12T12:34:00;2.67;;;1.50;;
67585;SDS011;55785;47.946;20.540;2023-08-12T12:36:26;2.33;;;1.33;;
67585;SDS011;55785;47.946;20.540;2023-08-12T12:38:52;2.22;;;1.50;;
67585;SDS011;55785;47.946;20.540;2023-08-12T12:41:17;1.70;;;1.35;;
67585;SDS011;55785;47.946;20.540;2023-08-12T12:43:42;1.77;;;1.40;;
67585;SDS011;55785;47.946;20.540;2023-08-12T12:46:08;2.65;;;1.42;;
67585;SDS011;55785;47.946;20.540;2023-08-12T12:48:33;3.38;;;1.50;;
67585;SDS011;55785;47.946;20.540;2023-08-12T12:50:59;1.63;;;1.20;;
67585;SDS011;55785;47.946;20.540;2023-08-12T12:53:24;3.28;;;1.50;;
67585;SDS011;55785;47.946;20.540;2023-08-12T12:55:50;2.28;;;1.30;;
67585;SDS011;55785;47.946;20.540;2023-08-12T12:58:15;1.85;;;1.20;;
67585;SDS011;55785;47.946;20.540;2023-08-12T13:00:40;1.70;;;1.30;;
67585;SDS011;55785;47.946;20.540;2023-08-12T13:03:06;2.40;;;1.40;;
67585;SDS011;55785;47.946;20.540;2023-08-12T13:05:31;3.88;;;1.60;;
67585;SDS011;55785;47.946;20.540;2023-08-12T13:07:56;2.50;;;1.60;;
67585;SDS011;55785;47.946;20.540;2023-08-12T13:10:22;2.22;;;1.40;;
67585;SDS011;55785;47.946;20.540;2023-08-12T13:12:47;2.33;;;1.30;;
67585;SDS011;55785;47.946;20.540;2023-08-12T13:15:13;3.10;;;1.52;;
67585;SDS011;55785;47.946;20.540;2023-08-12T13:17:38;2.55;;;1.30;;
67585;SDS011;55785;47.946;20.540;2023-08-12T13:20:03;1.80;;;1.30;;
67585;SDS011;55785;47.946;20.540;2023-08-12T13:22:29;1.52;;;1.30;;
67585;SDS011;55785;47.946;20.540;2023-08-12T13:24:55;2.17;;;1.20;;
67585;SDS011;55785;47.946;20.540;2023-08-12T13:27:20;2.05;;;1.38;;
67585;SDS011;55785;47.946;20.540;2023-08-12T13:29:45;2.20;;;1.50;;
67585;SDS011;55785;47.946;20.540;2023-08-12T13:32:11;2.15;;;1.70;;
67585;SDS011;55785;47.946;20.540;2023-08-12T13:34:36;2.20;;;1.30;;
67585;SDS011;55785;47.946;20.540;2023-08-12T13:37:01;1.95;;;1.45;;
67585;SDS011;55785;47.946;20.540;2023-08-12T13:39:27;1.75;;;1.35;;
67585;SDS011;55785;47.946;20.540;2023-08-12T13:41:52;1.63;;;1.20;;
67585;SDS011;55785;47.946;20.540;2023-08-12T13:44:17;1.73;;;1.30;;
67585;SDS011;55785;47.946;20.540;2023-08-12T13:46:43;4.25;;;1.15;;
67585;SDS011;55785;47.946;20.540;2023-08-12T13:49:08;4.25;;;1.50;;
67585;SDS011;55785;47.946;20.540;2023-08-12T13:51:34;1.75;;;1.27;;
67585;SDS011;55785;47.946;20.540;2023-08-12T13:53:59;1.50;;;1.10;;
67585;SDS011;55785;47.946;20.540;2023-08-12T13:56:24;2.03;;;1.23;;
67585;SDS011;55785;47.946;20.540;2023-08-12T13:58:50;2.00;;;1.10;;
67585;SDS011;55785;47.946;20.540;2023-08-12T14:01:15;2.80;;;1.10;;
67585;SDS011;55785;47.946;20.540;2023-08-12T14:03:40;1.90;;;1.40;;
67585;SDS011;55785;47.946;20.540;2023-08-12T14:06:06;1.50;;;1.25;;
67585;SDS011;55785;47.946;20.540;2023-08-12T14:08:31;2.95;;;1.20;;
67585;SDS011;55785;47.946;20.540;2023-08-12T14:10:56;1.50;;;1.20;;
67585;SDS011;55785;47.946;20.540;2023-08-12T14:13:22;4.35;;;1.50;;
67585;SDS011;55785;47.946;20.540;2023-08-12T14:15:47;1.98;;;1.20;;
67585;SDS011;55785;47.946;20.540;2023-08-12T14:18:13;3.10;;;1.30;;
67585;SDS011;55785;47.946;20.540;2023-08-12T14:20:38;1.63;;;1.13;;
67585;SDS011;55785;47.946;20.540;2023-08-12T14:23:03;2.15;;;1.27;;
67585;SDS011;55785;47.946;20.540;2023-08-12T14:25:29;1.75;;;1.20;;
67585;SDS011;55785;47.946;20.540;2023-08-12T14:27:55;1.48;;;1.20;;
67585;SDS011;55785;47.946;20.540;2023-08-12T14:30:23;2.40;;;1.20;;
67585;SDS011;55785;47.946;20.540;2023-08-12T14:32:49;1.73;;;1.27;;
67585;SDS011;55785;47.946;20.540;2023-08-12T14:35:14;1.40;;;1.30;;
67585;SDS011;55785;47.946;20.540;2023-08-12T14:37:39;2.22;;;1.30;;
67585;SDS011;55785;47.946;20.540;2023-08-12T14:40:05;1.95;;;1.33;;
67585;SDS011;55785;47.946;20.540;2023-08-12T14:42:31;1.92;;;1.20;;